Time,TemperatureF,DewpointF,PressureIn,WindDirection,WindDirectionDegrees,WindSpeedMPH,WindSpeedGustMPH,Humidity,HourlyPrecipIn,Conditions,Clouds,dailyrainin,SoftwareType,DateUTC
2013-03-22 00:02:00,64.8,60.1,29.69,East,90,3.0,6.0,85,0.00,,,0.00,meteohub,2013-03-22 05:02:00,
2013-03-22 00:07:00,64.8,60.1,29.69,NE,45,3.0,6.0,85,0.00,,,0.00,meteohub,2013-03-22 05:07:00,
2013-03-22 00:12:00,64.8,60.1,29.69,ENE,68,2.0,4.0,85,0.00,,,0.00,meteohub,2013-03-22 05:12:00,
2013-03-22 00:17:00,65.1,60.4,29.68,East,90,8.0,8.0,85,0.00,,,0.00,meteohub,2013-03-22 05:17:00,
2013-03-22 00:22:00,65.5,60.8,29.69,NE,45,4.0,9.0,85,0.00,,,0.00,meteohub,2013-03-22 05:22:00,
2013-03-22 00:27:00,65.7,61.0,29.69,ESE,113,8.0,9.0,85,0.00,,,0.00,meteohub,2013-03-22 05:27:00,
2013-03-22 00:32:00,65.8,61.2,29.70,East,90,6.0,9.0,85,0.00,,,0.00,meteohub,2013-03-22 05:32:00,
2013-03-22 00:37:00,66.0,61.3,29.69,NE,45,5.0,8.0,85,0.00,,,0.00,meteohub,2013-03-22 05:37:00,
2013-03-22 00:42:00,66.2,61.2,29.69,East,90,5.0,10.0,84,0.00,,,0.00,meteohub,2013-03-22 05:42:00,
2013-03-22 00:47:00,66.2,61.2,29.69,NE,45,7.0,10.0,84,0.00,,,0.00,meteohub,2013-03-22 05:47:00,
2013-03-22 00:52:00,66.2,61.2,29.69,NE,45,5.0,10.0,84,0.00,,,0.00,meteohub,2013-03-22 05:52:00,
2013-03-22 00:57:00,66.2,61.2,29.69,SE,135,9.0,9.0,84,0.00,,,0.00,meteohub,2013-03-22 05:57:00,
2013-03-22 01:02:00,66.4,61.3,29.69,NE,45,9.0,10.0,84,0.00,,,0.00,meteohub,2013-03-22 06:02:00,
2013-03-22 01:07:00,66.4,61.3,29.68,NE,45,5.0,10.0,84,0.00,,,0.00,meteohub,2013-03-22 06:07:00,
2013-03-22 01:13:00,66.6,61.5,29.69,East,90,12.0,12.0,84,0.00,,,0.00,meteohub,2013-03-22 06:13:00,
2013-03-22 01:18:00,66.6,61.5,29.69,NNE,23,7.0,12.0,84,0.00,,,0.00,meteohub,2013-03-22 06:18:00,
2013-03-22 01:23:00,66.6,61.5,29.68,East,90,8.0,12.0,84,0.00,,,0.00,meteohub,2013-03-22 06:23:00,
2013-03-22 01:28:00,66.7,62.1,29.69,ENE,68,7.0,13.0,85,0.00,,,0.00,meteohub,2013-03-22 06:28:00,
2013-03-22 01:33:00,66.7,62.1,29.69,NE,45,6.0,13.0,85,0.00,,,0.00,meteohub,2013-03-22 06:33:00,
2013-03-22 01:38:00,66.7,62.1,29.69,NE,45,8.0,13.0,85,0.00,,,0.00,meteohub,2013-03-22 06:38:00,
2013-03-22 01:43:00,66.7,62.1,29.69,East,90,10.0,11.0,85,0.00,,,0.00,meteohub,2013-03-22 06:43:00,
2013-03-22 01:48:00,66.7,62.1,29.69,NE,45,5.0,11.0,85,0.00,,,0.00,meteohub,2013-03-22 06:48:00,
2013-03-22 01:53:00,66.7,62.1,29.68,East,90,8.0,12.0,85,0.00,,,0.00,meteohub,2013-03-22 06:53:00,
2013-03-22 01:58:00,66.7,62.1,29.68,NE,45,4.0,12.0,85,0.00,,,0.00,meteohub,2013-03-22 06:58:00,
2013-03-22 02:03:00,66.7,62.1,29.68,East,90,4.0,12.0,85,0.00,,,0.00,meteohub,2013-03-22 07:03:00,
2013-03-22 02:08:00,66.7,62.1,29.69,East,90,9.0,11.0,85,0.00,,,0.00,meteohub,2013-03-22 07:08:00,
2013-03-22 02:13:00,66.7,62.1,29.68,NE,45,8.0,15.0,85,0.00,,,0.00,meteohub,2013-03-22 07:13:00,
2013-03-22 02:18:00,66.9,62.2,29.68,NE,45,8.0,15.0,85,0.00,,,0.00,meteohub,2013-03-22 07:18:00,
2013-03-22 02:23:00,66.9,62.2,29.68,East,90,8.0,15.0,85,0.00,,,0.00,meteohub,2013-03-22 07:23:00,
2013-03-22 02:28:00,66.9,62.2,29.69,NE,45,5.0,12.0,85,0.00,,,0.00,meteohub,2013-03-22 07:28:00,
2013-03-22 02:33:00,66.9,62.6,29.68,SE,135,6.0,12.0,86,0.00,,,0.00,meteohub,2013-03-22 07:33:00,
2013-03-22 02:38:00,66.7,62.4,29.68,ENE,68,8.0,10.0,86,0.00,,,0.00,meteohub,2013-03-22 07:38:00,
2013-03-22 02:43:00,66.9,62.6,29.69,East,90,13.0,13.0,86,0.00,,,0.00,meteohub,2013-03-22 07:43:00,
2013-03-22 02:49:00,66.9,62.6,29.69,East,90,8.0,11.0,86,0.00,,,0.00,meteohub,2013-03-22 07:49:00,
2013-03-22 02:54:00,66.9,62.6,29.68,East,90,4.0,13.0,86,0.00,,,0.00,meteohub,2013-03-22 07:54:00,
2013-03-22 02:59:00,66.9,62.6,29.69,ENE,68,7.0,13.0,86,0.00,,,0.00,meteohub,2013-03-22 07:59:00,
2013-03-22 03:04:00,66.9,62.6,29.69,SE,135,8.0,9.0,86,0.00,,,0.00,meteohub,2013-03-22 08:04:00,
2013-03-22 03:09:00,67.1,62.8,29.69,East,90,7.0,8.0,86,0.00,,,0.00,meteohub,2013-03-22 08:09:00,
2013-03-22 03:14:00,67.1,62.8,29.68,SE,135,7.0,8.0,86,0.00,,,0.00,meteohub,2013-03-22 08:14:00,
2013-03-22 03:19:00,67.1,62.8,29.68,East,90,7.0,8.0,86,0.00,,,0.00,meteohub,2013-03-22 08:19:00,
2013-03-22 03:24:00,67.1,62.8,29.68,ENE,68,4.0,8.0,86,0.00,,,0.00,meteohub,2013-03-22 08:24:00,
2013-03-22 03:29:00,67.1,62.8,29.68,ESE,113,4.0,8.0,86,0.00,,,0.00,meteohub,2013-03-22 08:29:00,
2013-03-22 03:34:00,67.1,62.8,29.68,East,90,5.0,8.0,86,0.00,,,0.00,meteohub,2013-03-22 08:34:00,
2013-03-22 03:39:00,66.9,63.0,29.68,East,90,5.0,8.0,87,0.00,,,0.00,meteohub,2013-03-22 08:39:00,
2013-03-22 03:44:00,66.9,63.0,29.68,East,90,6.0,8.0,87,0.00,,,0.00,meteohub,2013-03-22 08:44:00,
2013-03-22 03:49:00,66.9,63.0,29.68,East,90,6.0,8.0,87,0.00,,,0.00,meteohub,2013-03-22 08:49:00,
2013-03-22 03:54:00,66.9,63.0,29.68,ENE,68,4.0,8.0,87,0.00,,,0.00,meteohub,2013-03-22 08:54:00,
2013-03-22 03:59:00,66.7,62.8,29.68,East,90,4.0,8.0,87,0.00,,,0.00,meteohub,2013-03-22 08:59:00,
2013-03-22 04:04:00,66.7,62.8,29.68,East,90,4.0,7.0,87,0.00,,,0.00,meteohub,2013-03-22 09:04:00,
2013-03-22 04:09:00,66.7,62.8,29.68,NE,45,4.0,5.0,87,0.00,,,0.00,meteohub,2013-03-22 09:09:00,
2013-03-22 04:14:00,66.7,62.8,29.68,East,90,3.0,4.0,87,0.00,,,0.00,meteohub,2013-03-22 09:14:00,
2013-03-22 04:19:00,66.7,62.8,29.68,East,90,3.0,6.0,87,0.00,,,0.00,meteohub,2013-03-22 09:19:00,
2013-03-22 04:25:00,66.7,62.8,29.68,East,90,2.0,6.0,87,0.00,,,0.00,meteohub,2013-03-22 09:25:00,
2013-03-22 04:30:00,66.9,63.3,29.68,SE,135,4.0,6.0,88,0.00,,,0.00,meteohub,2013-03-22 09:30:00,
2013-03-22 04:35:00,66.9,63.3,29.68,NE,45,4.0,6.0,88,0.00,,,0.00,meteohub,2013-03-22 09:35:00,
2013-03-22 04:40:00,67.1,63.5,29.67,North,0,4.0,4.0,88,0.00,,,0.00,meteohub,2013-03-22 09:40:00,
2013-03-22 04:45:00,67.1,63.1,29.67,East,90,4.0,7.0,87,0.00,,,0.00,meteohub,2013-03-22 09:45:00,
2013-03-22 04:50:00,67.1,63.1,29.67,NE,45,2.0,7.0,87,0.00,,,0.00,meteohub,2013-03-22 09:50:00,
2013-03-22 04:55:00,67.1,63.1,29.67,NE,45,4.0,7.0,87,0.00,,,0.00,meteohub,2013-03-22 09:55:00,
2013-03-22 05:00:00,67.3,63.3,29.67,NE,45,5.0,5.0,87,0.00,,,0.00,meteohub,2013-03-22 10:00:00,
2013-03-22 05:05:00,67.3,63.3,29.67,NE,45,5.0,5.0,87,0.00,,,0.00,meteohub,2013-03-22 10:05:00,
2013-03-22 05:10:00,67.3,63.3,29.67,East,90,5.0,7.0,87,0.00,,,0.00,meteohub,2013-03-22 10:10:00,
2013-03-22 05:15:00,67.3,63.3,29.68,SE,135,5.0,7.0,87,0.00,,,0.00,meteohub,2013-03-22 10:15:00,
2013-03-22 05:20:00,67.3,63.3,29.67,SE,135,7.0,7.0,87,0.00,,,0.00,meteohub,2013-03-22 10:20:00,
2013-03-22 05:25:00,67.5,63.5,29.68,SE,135,4.0,7.0,87,0.00,,,0.00,meteohub,2013-03-22 10:25:00,
2013-03-22 05:30:00,67.5,63.5,29.68,SE,135,2.0,7.0,87,0.00,,,0.00,meteohub,2013-03-22 10:30:00,
2013-03-22 05:35:00,67.5,63.5,29.68,NE,45,6.0,7.0,87,0.00,,,0.00,meteohub,2013-03-22 10:35:00,
2013-03-22 05:40:00,67.5,63.5,29.68,East,90,3.0,7.0,87,0.00,,,0.00,meteohub,2013-03-22 10:40:00,
2013-03-22 05:45:00,67.5,63.5,29.68,East,90,4.0,7.0,87,0.00,,,0.00,meteohub,2013-03-22 10:45:00,
2013-03-22 05:50:00,67.5,63.5,29.68,ENE,68,3.0,7.0,87,0.00,,,0.00,meteohub,2013-03-22 10:50:00,
2013-03-22 05:55:00,67.5,63.5,29.68,NW,315,3.0,7.0,87,0.00,,,0.00,meteohub,2013-03-22 10:55:00,
2013-03-22 06:00:00,67.3,63.3,29.68,ENE,68,3.0,6.0,87,0.00,,,0.00,meteohub,2013-03-22 11:00:00,
2013-03-22 06:05:00,67.3,63.3,29.68,East,90,2.0,6.0,87,0.00,,,0.00,meteohub,2013-03-22 11:05:00,
2013-03-22 06:10:00,67.3,63.3,29.68,NE,45,6.0,6.0,87,0.00,,,0.00,meteohub,2013-03-22 11:10:00,
2013-03-22 06:15:00,67.3,63.3,29.69,NE,45,2.0,8.0,87,0.00,,,0.00,meteohub,2013-03-22 11:15:00,
2013-03-22 06:20:00,67.3,63.3,29.69,East,90,4.0,8.0,87,0.00,,,0.00,meteohub,2013-03-22 11:20:00,
2013-03-22 06:25:00,67.3,63.3,29.69,SE,135,3.0,8.0,87,0.00,,,0.00,meteohub,2013-03-22 11:25:00,
2013-03-22 06:30:00,67.3,63.3,29.69,NE,45,4.0,4.0,87,0.00,,,0.00,meteohub,2013-03-22 11:30:00,
2013-03-22 06:35:00,67.1,63.5,29.70,ENE,68,3.0,4.0,88,0.00,,,0.00,meteohub,2013-03-22 11:35:00,
2013-03-22 06:41:00,67.3,63.7,29.70,ENE,68,5.0,5.0,88,0.00,,,0.00,meteohub,2013-03-22 11:41:00,
2013-03-22 06:46:00,67.3,63.7,29.70,East,90,7.0,8.0,88,0.00,,,0.00,meteohub,2013-03-22 11:46:00,
2013-03-22 06:51:00,67.3,63.7,29.70,East,90,5.0,8.0,88,0.00,,,0.00,meteohub,2013-03-22 11:51:00,
2013-03-22 06:56:00,67.3,63.7,29.70,SE,135,7.0,8.0,88,0.00,,,0.00,meteohub,2013-03-22 11:56:00,
2013-03-22 07:01:00,67.3,63.7,29.70,East,90,4.0,8.0,88,0.00,,,0.00,meteohub,2013-03-22 12:01:00,
2013-03-22 07:06:00,67.3,63.7,29.70,East,90,4.0,7.0,88,0.00,,,0.00,meteohub,2013-03-22 12:06:00,
2013-03-22 07:11:00,67.3,63.7,29.71,East,90,4.0,7.0,88,0.00,,,0.00,meteohub,2013-03-22 12:11:00,
2013-03-22 07:16:00,67.3,63.7,29.71,East,90,3.0,4.0,88,0.00,,,0.00,meteohub,2013-03-22 12:16:00,
2013-03-22 07:22:00,67.3,63.7,29.71,East,90,4.0,4.0,88,0.00,,,0.00,meteohub,2013-03-22 12:22:00,
2013-03-22 07:27:00,67.3,63.7,29.71,East,90,2.0,4.0,88,0.00,,,0.00,meteohub,2013-03-22 12:27:00,
2013-03-22 07:32:00,67.3,63.7,29.71,East,90,3.0,4.0,88,0.00,,,0.00,meteohub,2013-03-22 12:32:00,
2013-03-22 07:37:00,67.3,63.7,29.71,East,90,4.0,4.0,88,0.00,,,0.00,meteohub,2013-03-22 12:37:00,
2013-03-22 07:42:00,67.3,63.7,29.71,East,90,8.0,8.0,88,0.00,,,0.00,meteohub,2013-03-22 12:42:00,
2013-03-22 07:47:00,67.3,63.7,29.71,East,90,4.0,8.0,88,0.00,,,0.00,meteohub,2013-03-22 12:47:00,
2013-03-22 07:52:00,67.3,63.7,29.71,SE,135,6.0,8.0,88,0.00,,,0.00,meteohub,2013-03-22 12:52:00,
2013-03-22 07:57:00,67.5,63.9,29.72,NE,45,3.0,8.0,88,0.00,,,0.00,meteohub,2013-03-22 12:57:00,
2013-03-22 08:02:00,67.5,63.9,29.72,East,90,4.0,6.0,88,0.00,,,0.00,meteohub,2013-03-22 13:02:00,
2013-03-22 08:07:00,67.6,64.0,29.72,NE,45,2.0,6.0,88,0.00,,,0.00,meteohub,2013-03-22 13:07:00,
2013-03-22 08:12:00,67.6,64.0,29.72,East,90,3.0,6.0,88,0.00,,,0.00,meteohub,2013-03-22 13:12:00,
2013-03-22 08:17:00,67.8,64.2,29.72,East,90,2.0,4.0,88,0.00,,,0.00,meteohub,2013-03-22 13:17:00,
2013-03-22 08:22:00,68.0,64.0,29.73,East,90,3.0,4.0,87,0.00,,,0.00,meteohub,2013-03-22 13:22:00,
2013-03-22 08:27:00,68.0,63.7,29.73,NE,45,3.0,5.0,86,0.00,,,0.00,meteohub,2013-03-22 13:27:00,
2013-03-22 08:32:00,68.2,63.9,29.73,East,90,4.0,5.0,86,0.00,,,0.00,meteohub,2013-03-22 13:32:00,
2013-03-22 08:37:00,68.4,64.0,29.73,East,90,7.0,7.0,86,0.00,,,0.00,meteohub,2013-03-22 13:37:00,
2013-03-22 08:42:00,68.5,63.9,29.73,South,180,4.0,7.0,85,0.00,,,0.00,meteohub,2013-03-22 13:42:00,
2013-03-22 08:47:00,68.7,64.0,29.73,NE,45,2.0,7.0,85,0.00,,,0.00,meteohub,2013-03-22 13:47:00,
2013-03-22 08:52:00,69.3,64.6,29.73,NE,45,2.0,7.0,85,0.00,,,0.00,meteohub,2013-03-22 13:52:00,
2013-03-22 08:57:00,69.8,64.8,29.74,East,90,3.0,4.0,84,0.00,,,0.00,meteohub,2013-03-22 13:57:00,
2013-03-22 09:02:00,69.8,64.4,29.74,NNE,23,3.0,4.0,83,0.00,,,0.00,meteohub,2013-03-22 14:02:00,
2013-03-22 09:07:00,69.8,64.4,29.74,NNE,23,3.0,4.0,83,0.00,,,0.00,meteohub,2013-03-22 14:07:00,
2013-03-22 09:12:00,69.8,64.4,29.74,NE,45,3.0,4.0,83,0.00,,,0.00,meteohub,2013-03-22 14:12:00,
2013-03-22 09:17:00,70.0,64.6,29.74,NE,45,4.0,6.0,83,0.00,,,0.00,meteohub,2013-03-22 14:17:00,
2013-03-22 09:22:00,70.3,64.9,29.74,East,90,2.0,6.0,83,0.00,,,0.00,meteohub,2013-03-22 14:22:00,
2013-03-22 09:27:00,70.9,65.1,29.75,East,90,3.0,6.0,82,0.00,,,0.00,meteohub,2013-03-22 14:27:00,
2013-03-22 09:33:00,70.9,64.8,29.75,ENE,68,8.0,8.0,81,0.00,,,0.00,meteohub,2013-03-22 14:33:00,
2013-03-22 09:38:00,70.7,64.6,29.75,SE,135,4.0,8.0,81,0.00,,,0.00,meteohub,2013-03-22 14:38:00,
2013-03-22 09:43:00,70.9,64.4,29.75,ESE,113,4.0,8.0,80,0.00,,,0.00,meteohub,2013-03-22 14:43:00,
2013-03-22 09:48:00,71.4,64.6,29.75,East,90,4.0,8.0,79,0.00,,,0.00,meteohub,2013-03-22 14:48:00,
2013-03-22 09:53:00,72.1,64.6,29.75,East,90,5.0,7.0,77,0.00,,,0.00,meteohub,2013-03-22 14:53:00,
2013-03-22 09:58:00,72.5,63.7,29.75,East,90,4.0,7.0,74,0.00,,,0.00,meteohub,2013-03-22 14:58:00,
2013-03-22 10:03:00,73.0,64.2,29.75,SE,135,6.0,8.0,74,0.00,,,0.00,meteohub,2013-03-22 15:03:00,
2013-03-22 10:08:00,73.6,64.0,29.75,East,90,6.0,8.0,72,0.00,,,0.00,meteohub,2013-03-22 15:08:00,
2013-03-22 10:13:00,75.2,63.9,29.76,SE,135,4.0,8.0,68,0.00,,,0.00,meteohub,2013-03-22 15:13:00,
2013-03-22 10:18:00,76.3,64.0,29.75,NE,45,7.0,7.0,66,0.00,,,0.00,meteohub,2013-03-22 15:18:00,
2013-03-22 10:23:00,77.2,64.6,29.76,SW,225,6.0,7.0,65,0.00,,,0.00,meteohub,2013-03-22 15:23:00,
2013-03-22 10:28:00,78.1,64.0,29.76,SE,135,4.0,7.0,62,0.00,,,0.00,meteohub,2013-03-22 15:28:00,
2013-03-22 10:33:00,77.4,63.9,29.76,ESE,113,4.0,7.0,63,0.00,,,0.00,meteohub,2013-03-22 15:33:00,
2013-03-22 10:38:00,77.5,63.9,29.76,East,90,5.0,7.0,63,0.00,,,0.00,meteohub,2013-03-22 15:38:00,
2013-03-22 10:43:00,77.9,64.2,29.76,ESE,113,5.0,7.0,63,0.00,,,0.00,meteohub,2013-03-22 15:43:00,
2013-03-22 10:48:00,79.2,64.6,29.76,SE,135,2.0,7.0,61,0.00,,,0.00,meteohub,2013-03-22 15:48:00,
2013-03-22 10:53:00,81.0,63.3,29.76,NE,45,1.0,7.0,55,0.00,,,0.00,meteohub,2013-03-22 15:53:00,
2013-03-22 10:58:00,80.8,62.6,29.76,East,90,6.0,6.0,54,0.00,,,0.00,meteohub,2013-03-22 15:58:00,
2013-03-22 11:03:00,80.4,63.3,29.76,East,90,5.0,7.0,56,0.00,,,0.00,meteohub,2013-03-22 16:03:00,
2013-03-22 11:08:00,80.4,63.3,29.77,East,90,5.0,7.0,56,0.00,,,0.00,meteohub,2013-03-22 16:08:00,
2013-03-22 11:13:00,79.2,63.1,29.77,WNW,293,2.0,7.0,58,0.00,,,0.00,meteohub,2013-03-22 16:13:00,
2013-03-22 11:19:00,81.7,63.9,29.77,NW,315,4.0,5.0,55,0.00,,,0.00,meteohub,2013-03-22 16:19:00,
2013-03-22 11:24:00,82.0,63.1,29.77,West,270,3.0,5.0,53,0.00,,,0.00,meteohub,2013-03-22 16:24:00,
2013-03-22 11:29:00,82.4,64.0,29.77,West,270,4.0,6.0,54,0.00,,,0.00,meteohub,2013-03-22 16:29:00,
2013-03-22 11:34:00,83.3,63.9,29.77,West,270,7.0,7.0,52,0.00,,,0.00,meteohub,2013-03-22 16:34:00,
2013-03-22 11:39:00,83.3,64.4,29.77,West,270,4.0,7.0,53,0.00,,,0.00,meteohub,2013-03-22 16:39:00,
2013-03-22 11:44:00,83.5,63.5,29.77,NW,315,5.0,7.0,51,0.00,,,0.00,meteohub,2013-03-22 16:44:00,
2013-03-22 11:49:00,84.4,63.7,29.77,West,270,5.0,7.0,50,0.00,,,0.00,meteohub,2013-03-22 16:49:00,
2013-03-22 11:54:00,83.8,63.9,29.77,South,180,7.0,7.0,51,0.00,,,0.00,meteohub,2013-03-22 16:54:00,
2013-03-22 11:59:00,84.0,64.6,29.76,West,270,4.0,8.0,52,0.00,,,0.00,meteohub,2013-03-22 16:59:00,
2013-03-22 12:04:00,83.7,63.0,29.77,West,270,6.0,8.0,50,0.00,,,0.00,meteohub,2013-03-22 17:04:00,
2013-03-22 12:09:00,82.9,63.0,29.76,SW,225,2.0,8.0,51,0.00,,,0.00,meteohub,2013-03-22 17:09:00,
2013-03-22 12:14:00,84.0,63.9,29.77,SW,225,6.0,6.0,51,0.00,,,0.00,meteohub,2013-03-22 17:14:00,
2013-03-22 12:19:00,85.1,63.1,29.77,NW,315,5.0,6.0,48,0.00,,,0.00,meteohub,2013-03-22 17:19:00,
2013-03-22 12:24:00,85.3,62.8,29.77,NW,315,4.0,6.0,47,0.00,,,0.00,meteohub,2013-03-22 17:24:00,
2013-03-22 12:29:00,83.8,63.1,29.77,NW,315,5.0,8.0,50,0.00,,,0.00,meteohub,2013-03-22 17:29:00,
2013-03-22 12:35:00,84.0,62.8,29.77,SSE,158,2.0,8.0,49,0.00,,,0.00,meteohub,2013-03-22 17:35:00,
2013-03-22 12:40:00,85.5,63.5,29.76,WNW,293,2.0,8.0,48,0.00,,,0.00,meteohub,2013-03-22 17:40:00,
2013-03-22 12:45:00,86.4,63.1,29.76,NW,315,4.0,8.0,46,0.00,,,0.00,meteohub,2013-03-22 17:45:00,
2013-03-22 12:50:00,85.5,63.0,29.76,West,270,4.0,8.0,47,0.00,,,0.00,meteohub,2013-03-22 17:50:00,
2013-03-22 12:55:00,85.5,62.2,29.75,WSW,248,4.0,8.0,46,0.00,,,0.00,meteohub,2013-03-22 17:55:00,
2013-03-22 13:00:00,86.0,62.8,29.75,West,270,4.0,8.0,46,0.00,,,0.00,meteohub,2013-03-22 18:00:00,
2013-03-22 13:05:00,86.2,62.4,29.75,SW,225,4.0,4.0,45,0.00,,,0.00,meteohub,2013-03-22 18:05:00,
2013-03-22 13:10:00,86.5,63.3,29.75,North,0,3.0,6.0,46,0.00,,,0.00,meteohub,2013-03-22 18:10:00,
2013-03-22 13:15:00,87.6,63.7,29.75,West,270,4.0,6.0,45,0.00,,,0.00,meteohub,2013-03-22 18:15:00,
2013-03-22 13:20:00,88.0,62.1,29.75,West,270,4.0,5.0,42,0.00,,,0.00,meteohub,2013-03-22 18:20:00,
2013-03-22 13:25:00,87.8,63.1,29.74,SW,225,5.0,5.0,44,0.00,,,0.00,meteohub,2013-03-22 18:25:00,
2013-03-22 13:30:00,87.6,63.0,29.74,NNE,23,4.0,7.0,44,0.00,,,0.00,meteohub,2013-03-22 18:30:00,
2013-03-22 13:35:00,88.0,62.6,29.74,NW,315,2.0,7.0,43,0.00,,,0.00,meteohub,2013-03-22 18:35:00,
2013-03-22 13:40:00,89.2,63.1,29.74,NW,315,6.0,7.0,42,0.00,,,0.00,meteohub,2013-03-22 18:40:00,
2013-03-22 13:45:00,88.9,62.8,29.74,NW,315,3.0,6.0,42,0.00,,,0.00,meteohub,2013-03-22 18:45:00,
2013-03-22 13:50:00,89.2,63.1,29.73,North,0,3.0,6.0,42,0.00,,,0.00,meteohub,2013-03-22 18:50:00,
2013-03-22 13:56:00,89.4,63.3,29.73,SW,225,6.0,6.0,42,0.00,,,0.00,meteohub,2013-03-22 18:56:00,
2013-03-22 14:01:00,88.9,62.8,29.73,West,270,4.0,6.0,42,0.00,,,0.00,meteohub,2013-03-22 19:01:00,
2013-03-22 14:06:00,88.3,62.4,29.73,West,270,4.0,10.0,42,0.00,,,0.00,meteohub,2013-03-22 19:06:00,
2013-03-22 14:11:00,89.2,63.1,29.73,North,0,2.0,10.0,42,0.00,,,0.00,meteohub,2013-03-22 19:11:00,
2013-03-22 14:16:00,88.9,62.1,29.73,South,180,6.0,10.0,41,0.00,,,0.00,meteohub,2013-03-22 19:16:00,
2013-03-22 14:19:00,88.9,62.1,29.73,West,270,4.0,10.0,41,0.00,,,0.00,meteohub,2013-03-22 19:19:00,
2013-03-22 14:22:00,89.2,63.1,29.73,South,180,5.0,6.0,42,0.00,,,0.00,meteohub,2013-03-22 19:22:00,
2013-03-22 14:27:00,89.8,60.8,29.73,ESE,113,4.0,6.0,38,0.00,,,0.00,meteohub,2013-03-22 19:27:00,
2013-03-22 14:32:00,88.2,62.2,29.72,North,0,3.0,6.0,42,0.00,,,0.00,meteohub,2013-03-22 19:32:00,
2013-03-22 14:37:00,90.0,61.0,29.72,East,90,2.0,5.0,38,0.00,,,0.00,meteohub,2013-03-22 19:37:00,
2013-03-22 14:42:00,90.3,61.3,29.72,NW,315,4.0,8.0,38,0.00,,,0.00,meteohub,2013-03-22 19:42:00,
2013-03-22 14:47:00,91.4,62.2,29.72,SE,135,4.0,8.0,38,0.00,,,0.00,meteohub,2013-03-22 19:47:00,
2013-03-22 14:52:00,90.1,61.9,29.71,NNW,338,3.0,8.0,39,0.00,,,0.00,meteohub,2013-03-22 19:52:00,
2013-03-22 14:57:00,90.7,61.5,29.72,North,0,2.0,4.0,38,0.00,,,0.00,meteohub,2013-03-22 19:57:00,
2013-03-22 15:02:00,90.7,62.2,29.71,NW,315,3.0,6.0,39,0.00,,,0.00,meteohub,2013-03-22 20:02:00,
2013-03-22 15:07:00,92.1,62.8,29.71,NW,315,4.0,6.0,38,0.00,,,0.00,meteohub,2013-03-22 20:07:00,
2013-03-22 15:12:00,91.6,62.4,29.72,SE,135,4.0,6.0,38,0.00,,,0.00,meteohub,2013-03-22 20:12:00,
2013-03-22 15:17:00,91.0,61.2,29.71,NW,315,3.0,6.0,37,0.00,,,0.00,meteohub,2013-03-22 20:17:00,
2013-03-22 15:22:00,92.7,63.3,29.71,West,270,4.0,7.0,38,0.00,,,0.00,meteohub,2013-03-22 20:22:00,
2013-03-22 15:27:00,92.7,62.6,29.71,SW,225,4.0,7.0,37,0.00,,,0.00,meteohub,2013-03-22 20:27:00,
2013-03-22 15:32:00,92.5,63.1,29.71,NW,315,4.0,7.0,38,0.00,,,0.00,meteohub,2013-03-22 20:32:00,
2013-03-22 15:37:00,92.7,62.6,29.71,SW,225,2.0,7.0,37,0.00,,,0.00,meteohub,2013-03-22 20:37:00,
2013-03-22 15:42:00,92.5,62.4,29.71,SW,225,4.0,7.0,37,0.00,,,0.00,meteohub,2013-03-22 20:42:00,
2013-03-22 15:47:00,91.6,62.4,29.71,NW,315,4.0,5.0,38,0.00,,,0.00,meteohub,2013-03-22 20:47:00,
2013-03-22 15:52:00,92.8,62.8,29.71,North,0,3.0,5.0,37,0.00,,,0.00,meteohub,2013-03-22 20:52:00,
2013-03-22 15:58:00,93.9,63.0,29.70,SE,135,4.0,4.0,36,0.00,,,0.00,meteohub,2013-03-22 20:58:00,
2013-03-22 16:03:00,92.8,62.8,29.70,SW,225,3.0,6.0,37,0.00,,,0.00,meteohub,2013-03-22 21:03:00,
2013-03-22 16:08:00,93.0,63.0,29.70,NW,315,2.0,6.0,37,0.00,,,0.00,meteohub,2013-03-22 21:08:00,
2013-03-22 16:13:00,93.7,62.8,29.70,NE,45,2.0,6.0,36,0.00,,,0.00,meteohub,2013-03-22 21:13:00,
2013-03-22 16:18:00,94.3,63.1,29.70,NW,315,4.0,7.0,36,0.00,,,0.00,meteohub,2013-03-22 21:18:00,
2013-03-22 16:23:00,94.8,63.0,29.70,West,270,3.0,7.0,35,0.00,,,0.00,meteohub,2013-03-22 21:23:00,
2013-03-22 16:28:00,94.8,63.7,29.70,West,270,4.0,7.0,36,0.00,,,0.00,meteohub,2013-03-22 21:28:00,
2013-03-22 16:33:00,96.4,63.5,29.70,NW,315,6.0,6.0,34,0.00,,,0.00,meteohub,2013-03-22 21:33:00,
2013-03-22 16:38:00,97.2,62.4,29.70,NW,315,7.0,8.0,32,0.00,,,0.00,meteohub,2013-03-22 21:38:00,
2013-03-22 16:43:00,95.5,61.9,29.70,WSW,248,6.0,8.0,33,0.00,,,0.00,meteohub,2013-03-22 21:43:00,
2013-03-22 16:48:00,94.5,62.6,29.70,NW,315,4.0,9.0,35,0.00,,,0.00,meteohub,2013-03-22 21:48:00,
2013-03-22 16:53:00,94.5,62.6,29.70,West,270,5.0,9.0,35,0.00,,,0.00,meteohub,2013-03-22 21:53:00,
2013-03-22 16:58:00,94.8,63.0,29.70,NW,315,6.0,9.0,35,0.00,,,0.00,meteohub,2013-03-22 21:58:00,
2013-03-22 17:03:00,95.4,61.7,29.70,West,270,5.0,8.0,33,0.00,,,0.00,meteohub,2013-03-22 22:03:00,
2013-03-22 17:08:00,94.8,62.1,29.70,East,90,4.0,8.0,34,0.00,,,0.00,meteohub,2013-03-22 22:08:00,
2013-03-22 17:14:00,93.7,61.9,29.70,NW,315,5.0,8.0,35,0.00,,,0.00,meteohub,2013-03-22 22:14:00,
2013-03-22 17:19:00,93.9,62.1,29.70,North,0,4.0,8.0,35,0.00,,,0.00,meteohub,2013-03-22 22:19:00,
2013-03-22 17:24:00,93.0,62.1,29.70,West,270,7.0,8.0,36,0.00,,,0.00,meteohub,2013-03-22 22:24:00,
2013-03-22 17:29:00,93.0,62.1,29.70,West,270,3.0,8.0,36,0.00,,,0.00,meteohub,2013-03-22 22:29:00,
2013-03-22 17:34:00,93.6,61.7,29.70,North,0,2.0,8.0,35,0.00,,,0.00,meteohub,2013-03-22 22:34:00,
2013-03-22 17:39:00,93.7,61.2,29.70,NW,315,4.0,8.0,34,0.00,,,0.00,meteohub,2013-03-22 22:39:00,
2013-03-22 17:44:00,93.7,61.2,29.70,SW,225,6.0,6.0,34,0.00,,,0.00,meteohub,2013-03-22 22:44:00,
2013-03-22 17:49:00,93.2,61.5,29.70,NW,315,4.0,8.0,35,0.00,,,0.00,meteohub,2013-03-22 22:49:00,
2013-03-22 17:54:00,91.8,61.0,29.70,SW,225,4.0,8.0,36,0.00,,,0.00,meteohub,2013-03-22 22:54:00,
2013-03-22 17:59:00,91.2,59.0,29.70,NW,315,5.0,8.0,34,0.00,,,0.00,meteohub,2013-03-22 22:59:00,
2013-03-22 18:04:00,90.9,58.6,29.71,NW,315,6.0,7.0,34,0.00,,,0.00,meteohub,2013-03-22 23:04:00,
2013-03-22 18:09:00,90.0,58.6,29.70,West,270,7.0,7.0,35,0.00,,,0.00,meteohub,2013-03-22 23:09:00,
2013-03-22 18:14:00,89.4,58.1,29.71,West,270,5.0,7.0,35,0.00,,,0.00,meteohub,2013-03-22 23:14:00,
2013-03-22 18:19:00,88.3,57.9,29.71,West,270,4.0,7.0,36,0.00,,,0.00,meteohub,2013-03-22 23:19:00,
2013-03-22 18:24:00,87.8,58.3,29.71,West,270,6.0,7.0,37,0.00,,,0.00,meteohub,2013-03-22 23:24:00,
2013-03-22 18:29:00,86.7,58.8,29.72,West,270,4.0,6.0,39,0.00,,,0.00,meteohub,2013-03-22 23:29:00,
2013-03-22 18:35:00,84.6,59.0,29.71,West,270,5.0,8.0,42,0.00,,,0.00,meteohub,2013-03-22 23:35:00,
2013-03-22 18:40:00,83.5,59.9,29.71,North,0,4.0,8.0,45,0.00,,,0.00,meteohub,2013-03-22 23:40:00,
2013-03-22 18:45:00,82.9,59.4,29.71,NW,315,4.0,7.0,45,0.00,,,0.00,meteohub,2013-03-22 23:45:00,
2013-03-22 18:50:00,82.6,59.0,29.72,NW,315,4.0,7.0,45,0.00,,,0.00,meteohub,2013-03-22 23:50:00,
2013-03-22 18:55:00,82.0,57.4,29.72,NW,315,4.0,6.0,43,0.00,,,0.00,meteohub,2013-03-22 23:55:00,
2013-03-22 19:00:00,81.3,56.7,29.72,NW,315,4.0,6.0,43,0.00,,,0.00,meteohub,2013-03-23 00:00:00,
2013-03-22 19:05:00,80.6,56.7,29.72,West,270,5.0,7.0,44,0.00,,,0.00,meteohub,2013-03-23 00:05:00,
2013-03-22 19:10:00,79.9,56.7,29.72,NW,315,4.0,7.0,45,0.00,,,0.00,meteohub,2013-03-23 00:10:00,
2013-03-22 19:15:00,79.2,56.7,29.72,NW,315,4.0,7.0,46,0.00,,,0.00,meteohub,2013-03-23 00:15:00,
2013-03-22 19:20:00,78.6,56.7,29.73,West,270,4.0,5.0,47,0.00,,,0.00,meteohub,2013-03-23 00:20:00,
2013-03-22 19:25:00,77.7,56.5,29.73,WNW,293,4.0,6.0,48,0.00,,,0.00,meteohub,2013-03-23 00:25:00,
2013-03-22 19:30:00,77.0,56.3,29.73,West,270,4.0,6.0,49,0.00,,,0.00,meteohub,2013-03-23 00:30:00,
2013-03-22 19:35:00,76.3,56.8,29.73,NNW,338,3.0,6.0,51,0.00,,,0.00,meteohub,2013-03-23 00:35:00,
2013-03-22 19:40:00,75.6,56.7,29.73,West,270,3.0,6.0,52,0.00,,,0.00,meteohub,2013-03-23 00:40:00,
2013-03-22 19:45:00,75.2,56.3,29.74,NNW,338,4.0,5.0,52,0.00,,,0.00,meteohub,2013-03-23 00:45:00,
2013-03-22 19:50:00,74.7,56.5,29.74,North,0,4.0,4.0,53,0.00,,,0.00,meteohub,2013-03-23 00:50:00,
2013-03-22 19:55:00,74.1,56.5,29.74,West,270,3.0,4.0,54,0.00,,,0.00,meteohub,2013-03-23 00:55:00,
2013-03-22 20:00:00,73.8,56.1,29.74,West,270,7.0,7.0,54,0.00,,,0.00,meteohub,2013-03-23 01:00:00,
2013-03-22 20:05:00,73.0,55.4,29.75,NW,315,3.0,7.0,54,0.00,,,0.00,meteohub,2013-03-23 01:05:00,
2013-03-22 20:11:00,72.3,54.1,29.75,West,270,3.0,7.0,53,0.00,,,0.00,meteohub,2013-03-23 01:11:00,
2013-03-22 20:16:00,71.8,53.8,29.75,NW,315,4.0,7.0,53,0.00,,,0.00,meteohub,2013-03-23 01:16:00,
2013-03-22 20:21:00,71.2,53.8,29.75,NNW,338,3.0,7.0,54,0.00,,,0.00,meteohub,2013-03-23 01:21:00,
2013-03-22 20:26:00,70.7,53.2,29.76,NNW,338,4.0,5.0,54,0.00,,,0.00,meteohub,2013-03-23 01:26:00,
2013-03-22 20:31:00,70.2,52.7,29.76,NW,315,2.0,4.0,54,0.00,,,0.00,meteohub,2013-03-23 01:31:00,
2013-03-22 20:37:00,69.8,52.9,29.76,NW,315,3.0,4.0,55,0.00,,,0.00,meteohub,2013-03-23 01:37:00,
2013-03-22 20:42:00,69.6,53.2,29.76,NE,45,2.0,4.0,56,0.00,,,0.00,meteohub,2013-03-23 01:42:00,
2013-03-22 20:47:00,69.1,52.7,29.76,NW,315,2.0,4.0,56,0.00,,,0.00,meteohub,2013-03-23 01:47:00,
2013-03-22 20:52:00,68.9,52.5,29.76,West,270,5.0,7.0,56,0.00,,,0.00,meteohub,2013-03-23 01:52:00,
2013-03-22 20:57:00,68.7,52.3,29.77,NW,315,3.0,7.0,56,0.00,,,0.00,meteohub,2013-03-23 01:57:00,
2013-03-22 21:02:00,68.4,52.0,29.77,SW,225,5.0,7.0,56,0.00,,,0.00,meteohub,2013-03-23 02:02:00,
2013-03-22 21:07:00,67.5,51.6,29.78,NNW,338,3.0,9.0,57,0.00,,,0.00,meteohub,2013-03-23 02:07:00,
2013-03-22 21:12:00,66.4,50.7,29.78,NNE,23,3.0,9.0,57,0.00,,,0.00,meteohub,2013-03-23 02:12:00,
2013-03-22 21:17:00,65.5,50.7,29.79,NW,315,4.0,9.0,59,0.00,,,0.00,meteohub,2013-03-23 02:17:00,
2013-03-22 21:22:00,64.6,49.5,29.79,NW,315,4.0,7.0,58,0.00,,,0.00,meteohub,2013-03-23 02:22:00,
2013-03-22 21:27:00,63.5,49.3,29.80,NW,315,2.0,5.0,60,0.00,,,0.00,meteohub,2013-03-23 02:27:00,
2013-03-22 21:32:00,63.0,49.3,29.80,West,270,2.0,5.0,61,0.00,,,0.00,meteohub,2013-03-23 02:32:00,
2013-03-22 21:37:00,62.6,48.9,29.80,NW,315,4.0,4.0,61,0.00,,,0.00,meteohub,2013-03-23 02:37:00,
2013-03-22 21:42:00,62.1,48.9,29.81,North,0,2.0,4.0,62,0.00,,,0.00,meteohub,2013-03-23 02:42:00,
2013-03-22 21:47:00,61.7,48.9,29.81,NW,315,2.0,4.0,63,0.00,,,0.00,meteohub,2013-03-23 02:47:00,
2013-03-22 21:52:00,61.3,48.6,29.81,NW,315,2.0,4.0,63,0.00,,,0.00,meteohub,2013-03-23 02:52:00,
2013-03-22 21:57:00,61.0,48.4,29.81,West,270,3.0,3.0,63,0.00,,,0.00,meteohub,2013-03-23 02:57:00,
2013-03-22 22:02:00,60.8,48.2,29.82,NW,315,2.0,4.0,63,0.00,,,0.00,meteohub,2013-03-23 03:02:00,
2013-03-22 22:07:00,60.8,48.2,29.82,NW,315,2.0,4.0,63,0.00,,,0.00,meteohub,2013-03-23 03:07:00,
2013-03-22 22:12:00,60.1,48.2,29.83,NW,315,2.0,4.0,65,0.00,,,0.00,meteohub,2013-03-23 03:12:00,
2013-03-22 22:17:00,59.9,48.6,29.82,NE,45,3.0,3.0,66,0.00,,,0.00,meteohub,2013-03-23 03:17:00,
2013-03-22 22:22:00,59.7,48.7,29.82,SE,135,2.0,3.0,67,0.00,,,0.00,meteohub,2013-03-23 03:22:00,
2013-03-22 22:27:00,59.4,48.0,29.82,NW,315,2.0,3.0,66,0.00,,,0.00,meteohub,2013-03-23 03:27:00,
2013-03-22 22:32:00,59.0,48.0,29.83,NW,315,2.0,3.0,67,0.00,,,0.00,meteohub,2013-03-23 03:32:00,
2013-03-22 22:37:00,58.6,48.2,29.83,North,0,2.0,3.0,68,0.00,,,0.00,meteohub,2013-03-23 03:37:00,
2013-03-22 22:42:00,58.5,48.0,29.83,NW,315,2.0,3.0,68,0.00,,,0.00,meteohub,2013-03-23 03:42:00,
2013-03-22 22:48:00,58.5,48.0,29.83,NW,315,2.0,3.0,68,0.00,,,0.00,meteohub,2013-03-23 03:48:00,
2013-03-22 22:53:00,58.5,48.4,29.83,SW,225,2.0,3.0,69,0.00,,,0.00,meteohub,2013-03-23 03:53:00,
2013-03-22 22:58:00,58.5,48.4,29.82,SW,225,2.0,3.0,69,0.00,,,0.00,meteohub,2013-03-23 03:58:00,
2013-03-22 23:00:00,58.5,48.4,29.82,North,0,4.0,4.0,69,0.00,,,0.00,meteohub,2013-03-23 04:00:00,
2013-03-22 23:01:00,58.5,48.4,29.82,North,0,4.0,4.0,69,0.00,,,0.00,meteohub,2013-03-23 04:01:00,
2013-03-22 23:02:00,58.5,48.4,29.82,North,0,4.0,4.0,69,0.00,,,0.00,meteohub,2013-03-23 04:02:00,
2013-03-22 23:07:00,58.5,48.4,29.82,North,0,4.0,4.0,69,0.00,,,0.00,meteohub,2013-03-23 04:07:00,
2013-03-22 23:13:00,58.3,48.2,29.83,NE,45,6.0,6.0,69,0.00,,,0.00,meteohub,2013-03-23 04:13:00,
2013-03-22 23:18:00,58.3,48.2,29.82,WNW,293,3.0,6.0,69,0.00,,,0.00,meteohub,2013-03-23 04:18:00,
2013-03-22 23:23:00,58.3,47.8,29.83,NW,315,2.0,6.0,68,0.00,,,0.00,meteohub,2013-03-23 04:23:00,
2013-03-22 23:28:00,58.3,47.8,29.82,West,270,4.0,6.0,68,0.00,,,0.00,meteohub,2013-03-23 04:28:00,
2013-03-22 23:33:00,58.1,47.7,29.82,NW,315,2.0,4.0,68,0.00,,,0.00,meteohub,2013-03-23 04:33:00,
2013-03-22 23:38:00,58.1,47.7,29.82,NW,315,2.0,4.0,68,0.00,,,0.00,meteohub,2013-03-23 04:38:00,
2013-03-22 23:43:00,57.9,46.9,29.81,West,270,2.0,4.0,67,0.00,,,0.00,meteohub,2013-03-23 04:43:00,
2013-03-22 23:48:00,57.7,46.9,29.81,West,270,3.0,4.0,67,0.00,,,0.00,meteohub,2013-03-23 04:48:00,
2013-03-22 23:53:00,57.6,47.1,29.81,NE,45,2.0,4.0,68,0.00,,,0.00,meteohub,2013-03-23 04:53:00,
2013-03-22 23:58:00,57.4,46.9,29.81,West,270,3.0,4.0,68,0.00,,,0.00,meteohub,2013-03-23 04:58:00,